createdAt,value
2023-06-17T00:01:20.838Z,100915.25
2023-06-17T00:03:48.388Z,100903.94
2023-06-17T00:06:15.852Z,100899.88
2023-06-17T00:08:43.304Z,100900.41
2023-06-17T00:11:11.963Z,100893.81
2023-06-17T00:13:39.859Z,100889.44
2023-06-17T00:16:07.390Z,100887.56
2023-06-17T00:18:36.231Z,100887.31
2023-06-17T00:21:03.934Z,100890.81
2023-06-17T00:23:32.071Z,100884.00
2023-06-17T00:25:59.605Z,100883.97
2023-06-17T00:28:27.059Z,100881.06
2023-06-17T00:30:54.556Z,100880.22
2023-06-17T00:33:21.990Z,100882.34
2023-06-17T00:35:51.862Z,100890.09
2023-06-17T00:38:20.409Z,100889.38
2023-06-17T00:40:47.849Z,100882.25
2023-06-17T00:43:15.510Z,100881.56
2023-06-17T00:45:43.032Z,100881.22
2023-06-17T00:48:12.010Z,100881.78
2023-06-17T00:50:39.976Z,100871.50
2023-06-17T00:53:09.137Z,100867.25
2023-06-17T00:55:37.040Z,100869.25
2023-06-17T00:58:05.068Z,100863.63
2023-06-17T01:00:32.513Z,100863.56
2023-06-17T01:03:00.227Z,100865.16
2023-06-17T01:05:28.418Z,100864.91
2023-06-17T01:08:11.264Z,100859.69
2023-06-17T01:10:46.706Z,100861.75
2023-06-17T01:13:17.148Z,100865.25
2023-06-17T01:15:45.643Z,100868.47
2023-06-17T01:18:19.001Z,100872.59
2023-06-17T01:20:48.243Z,100870.06
2023-06-17T01:23:16.946Z,100866.84
2023-06-17T01:25:47.075Z,100877.25
2023-06-17T01:28:17.752Z,100877.03
2023-06-17T01:30:46.152Z,100879.56
2023-06-17T01:33:14.763Z,100882.03
2023-06-17T01:35:47.991Z,100875.31
2023-06-17T01:38:21.076Z,100871.94
2023-06-17T01:40:59.728Z,100879.06
2023-06-17T01:43:28.141Z,100877.78
2023-06-17T01:45:57.554Z,100873.25
2023-06-17T01:48:25.475Z,100872.91
2023-06-17T01:50:53.195Z,100868.47
2023-06-17T01:53:20.789Z,100874.28
2023-06-17T01:55:48.279Z,100864.69
2023-06-17T01:58:17.144Z,100866.34
2023-06-17T02:00:44.620Z,100866.59
2023-06-17T02:03:12.199Z,100866.72
2023-06-17T02:05:39.686Z,100861.50
2023-06-17T02:08:07.336Z,100852.97
2023-06-17T02:10:34.912Z,100864.00
2023-06-17T02:13:04.474Z,100860.16
2023-06-17T02:15:33.249Z,100860.34
2023-06-17T02:18:01.696Z,100866.19
2023-06-17T02:20:29.306Z,100855.19
2023-06-17T02:22:56.763Z,100859.38
2023-06-17T02:25:24.254Z,100856.72
2023-06-17T02:27:52.631Z,100870.94
2023-06-17T02:30:20.502Z,100862.75
2023-06-17T02:32:49.560Z,100850.72
2023-06-17T02:35:17.268Z,100851.16
2023-06-17T02:37:45.558Z,100851.63
2023-06-17T02:40:13.135Z,100856.63
2023-06-17T02:42:40.993Z,100853.28
2023-06-17T02:45:12.267Z,100848.59
2023-06-17T02:47:39.864Z,100857.28
2023-06-17T02:50:09.597Z,100854.28
2023-06-17T02:52:38.390Z,100859.16
2023-06-17T02:55:06.968Z,100860.81
2023-06-17T02:57:34.502Z,100853.72
2023-06-17T03:00:02.025Z,100847.72
2023-06-17T03:02:29.554Z,100851.44
2023-06-17T03:04:57.882Z,100852.41
2023-06-17T03:07:26.636Z,100853.03
2023-06-17T03:09:54.088Z,100849.50
2023-06-17T03:12:21.513Z,100854.94
2023-06-17T03:14:49.056Z,100850.41
2023-06-17T03:17:16.533Z,100859.19
2023-06-17T03:19:44.882Z,100849.44
2023-06-17T03:22:12.462Z,100850.06
2023-06-17T03:24:41.420Z,100850.19
2023-06-17T03:27:08.950Z,100854.78
2023-06-17T03:29:36.618Z,100849.75
2023-06-17T03:32:04.550Z,100846.13
2023-06-17T03:34:32.623Z,100848.56
2023-06-17T03:37:00.085Z,100845.53
2023-06-17T03:39:27.565Z,100845.34
2023-06-17T03:41:56.288Z,100847.47
2023-06-17T03:44:23.703Z,100849.81
2023-06-17T03:46:51.158Z,100852.03
2023-06-17T03:49:18.607Z,100856.03
2023-06-17T03:51:46.071Z,100857.06
2023-06-17T03:54:13.478Z,100853.44
2023-06-17T03:56:41.404Z,100853.00
2023-06-17T03:59:12.149Z,100854.13
2023-06-17T04:01:41.372Z,100857.56
2023-06-17T04:04:08.960Z,100862.09
2023-06-17T04:06:37.138Z,100870.94
2023-06-17T04:09:05.019Z,100868.16
2023-06-17T04:11:34.032Z,100860.13
2023-06-17T04:14:01.632Z,100862.22
2023-06-17T04:16:31.776Z,100861.13
2023-06-17T04:18:59.572Z,100864.09
2023-06-17T04:21:27.690Z,100857.06
2023-06-17T04:23:55.177Z,100854.09
2023-06-17T04:26:24.013Z,100863.94
2023-06-17T04:28:51.479Z,100866.94
2023-06-17T04:31:18.920Z,100867.47
2023-06-17T04:33:47.783Z,100863.75
2023-06-17T04:36:15.561Z,100872.28
2023-06-17T04:38:43.066Z,100872.00
2023-06-17T04:41:10.581Z,100869.59
2023-06-17T04:43:38.847Z,100862.78
2023-06-17T04:46:07.119Z,100869.91
2023-06-17T04:48:34.859Z,100872.66
2023-06-17T04:51:03.692Z,100867.28
2023-06-17T04:53:31.136Z,100866.78
2023-06-17T04:55:58.735Z,100872.22
2023-06-17T04:58:26.269Z,100875.56
2023-06-17T05:00:53.787Z,100880.59
2023-06-17T05:03:21.284Z,100876.56
2023-06-17T05:05:48.928Z,100876.66
2023-06-17T05:08:17.699Z,100878.63
2023-06-17T05:10:45.171Z,100875.72
2023-06-17T05:13:12.607Z,100874.81
2023-06-17T05:15:40.040Z,100872.59
2023-06-17T05:18:07.592Z,100862.03
2023-06-17T05:20:35.138Z,100877.09
2023-06-17T05:23:02.660Z,100876.16
2023-06-17T05:25:31.397Z,100881.53
2023-06-17T05:27:58.850Z,100871.88
2023-06-17T05:30:26.336Z,100872.53
2023-06-17T05:32:53.859Z,100871.59
2023-06-17T05:35:21.414Z,100866.25
2023-06-17T05:37:48.878Z,100876.34
2023-06-17T05:40:16.418Z,100869.56
2023-06-17T05:42:45.166Z,100870.56
2023-06-17T05:45:12.799Z,100867.88
2023-06-17T05:47:40.312Z,100865.44
2023-06-17T05:50:08.154Z,100868.72
2023-06-17T05:52:35.585Z,100880.09
2023-06-17T05:55:03.012Z,100884.53
2023-06-17T05:57:30.640Z,100877.09
2023-06-17T05:59:59.412Z,100888.94
2023-06-17T06:02:26.889Z,100891.91
2023-06-17T06:04:54.357Z,100887.22
2023-06-17T06:07:21.785Z,100886.25
2023-06-17T06:09:49.451Z,100894.31
2023-06-17T06:12:16.877Z,100896.19
2023-06-17T06:14:44.949Z,100890.66
2023-06-17T06:17:13.756Z,100893.19
2023-06-17T06:19:41.181Z,100901.00
2023-06-17T06:22:08.702Z,100894.97
2023-06-17T06:24:36.169Z,100892.56
2023-06-17T06:27:03.676Z,100893.91
2023-06-17T06:29:31.169Z,100898.41
2023-06-17T06:31:58.587Z,100898.84
2023-06-17T06:34:27.312Z,100893.44
2023-06-17T06:36:56.342Z,100890.53
2023-06-17T06:39:23.850Z,100894.75
2023-06-17T06:41:51.305Z,100891.44
2023-06-17T06:44:19.228Z,100887.63
2023-06-17T06:46:47.758Z,100897.13
2023-06-17T06:49:15.268Z,100898.63
2023-06-17T06:51:43.998Z,100895.81
2023-06-17T06:54:11.467Z,100890.88
2023-06-17T06:56:38.890Z,100900.56
2023-06-17T06:59:06.413Z,100903.56
2023-06-17T07:01:33.896Z,100911.72
2023-06-17T07:04:01.479Z,100899.88
2023-06-17T07:06:28.928Z,100911.72
2023-06-17T07:08:57.673Z,100904.28
2023-06-17T07:11:25.096Z,100905.31
2023-06-17T07:13:52.557Z,100905.63
2023-06-17T07:16:20.188Z,100899.38
2023-06-17T07:18:47.642Z,100904.09
2023-06-17T07:21:15.065Z,100890.66
2023-06-17T07:23:42.516Z,100902.22
2023-06-17T07:26:11.263Z,100899.53
2023-06-17T07:28:38.706Z,100904.75
2023-06-17T07:31:06.586Z,100909.09
2023-06-17T07:33:34.163Z,100901.53
2023-06-17T07:36:01.606Z,100901.53
2023-06-17T07:38:29.068Z,100913.72
2023-06-17T07:40:56.535Z,100902.56
2023-06-17T07:43:25.362Z,100906.88
2023-06-17T07:45:52.862Z,100901.25
2023-06-17T07:48:20.478Z,100905.81
2023-06-17T07:50:47.891Z,100904.03
2023-06-17T07:53:16.357Z,100902.84
2023-06-17T07:55:43.937Z,100907.13
2023-06-17T07:58:11.692Z,100910.84
2023-06-17T08:00:40.445Z,100917.03
2023-06-17T08:03:09.144Z,100897.94
2023-06-17T08:05:38.021Z,100903.38
2023-06-17T08:08:05.822Z,100893.94
2023-06-17T08:10:33.717Z,100898.78
2023-06-17T08:13:01.238Z,100903.38
2023-06-17T08:15:29.388Z,100907.13
2023-06-17T08:17:58.311Z,100903.16
2023-06-17T08:20:25.996Z,100900.72
2023-06-17T08:22:53.523Z,100895.09
2023-06-17T08:25:21.765Z,100904.25
2023-06-17T08:27:49.486Z,100905.59
2023-06-17T08:30:17.069Z,100907.91
2023-06-17T08:32:44.740Z,100907.66
2023-06-17T08:35:15.453Z,100900.72
2023-06-17T08:37:42.969Z,100908.25
2023-06-17T08:40:11.157Z,100908.22
2023-06-17T08:42:40.340Z,100915.28
2023-06-17T08:45:08.887Z,100906.47
2023-06-17T08:47:36.916Z,100897.13
2023-06-17T08:50:05.211Z,100906.16
2023-06-17T08:52:35.778Z,100896.50
2023-06-17T08:55:04.044Z,100906.03
2023-06-17T08:57:32.862Z,100896.53
2023-06-17T09:00:00.482Z,100900.59
2023-06-17T09:02:29.027Z,100902.41
2023-06-17T09:04:56.756Z,100913.19
2023-06-17T09:07:26.755Z,100908.75
2023-06-17T09:09:56.797Z,100905.94
2023-06-17T09:12:26.437Z,100918.22
2023-06-17T09:14:55.688Z,100916.63
2023-06-17T09:17:33.584Z,100910.75
2023-06-17T09:20:11.278Z,100909.66
2023-06-17T09:22:41.652Z,100902.59
2023-06-17T09:25:15.503Z,100900.38
2023-06-17T09:27:58.411Z,100902.91
2023-06-17T09:30:30.355Z,100911.28
2023-06-17T09:32:57.863Z,100904.66
2023-06-17T09:35:25.478Z,100916.75
2023-06-17T09:38:03.124Z,100912.06
2023-06-17T09:40:35.121Z,100919.13
2023-06-17T09:45:33.842Z,100918.06
2023-06-17T09:48:01.284Z,100912.59
2023-06-17T09:50:28.719Z,100907.56
2023-06-17T09:52:57.043Z,100913.53
2023-06-17T09:55:24.829Z,100915.56
2023-06-17T09:57:54.805Z,100908.63
2023-06-17T10:00:26.563Z,100904.22
2023-06-17T10:02:55.125Z,100907.13
2023-06-17T10:05:24.922Z,100910.19
2023-06-17T10:07:54.829Z,100909.81
2023-06-17T10:10:24.545Z,100910.53
2023-06-17T10:12:56.882Z,100908.16
2023-06-17T10:15:26.235Z,100897.75
2023-06-17T10:17:55.899Z,100896.19
2023-06-17T10:20:26.051Z,100898.34
2023-06-17T10:22:56.058Z,100896.47
2023-06-17T10:25:25.363Z,100895.91
2023-06-17T10:27:54.617Z,100897.66
2023-06-17T10:30:24.914Z,100912.94
2023-06-17T10:33:00.268Z,100900.44
2023-06-17T10:35:38.851Z,100899.13
2023-06-17T10:38:07.628Z,100906.31
2023-06-17T10:40:37.285Z,100895.84
2023-06-17T10:43:22.154Z,100883.00
2023-06-17T10:45:52.194Z,100894.06
2023-06-17T10:48:23.341Z,100893.38
2023-06-17T10:50:56.303Z,100897.06
2023-06-17T10:53:29.283Z,100902.03
2023-06-17T10:55:58.344Z,100898.84
2023-06-17T10:58:32.810Z,100903.66
2023-06-17T11:01:05.296Z,100893.59
2023-06-17T11:03:33.139Z,100886.28
2023-06-17T11:06:02.152Z,100876.53
2023-06-17T11:08:31.292Z,100866.22
2023-06-17T11:11:12.904Z,100867.06
2023-06-17T11:13:43.062Z,100875.69
2023-06-17T11:16:11.579Z,100887.94
2023-06-17T11:18:40.076Z,100891.56
2023-06-17T11:21:07.977Z,100900.06
2023-06-17T11:23:36.855Z,100898.19
2023-06-17T11:26:06.114Z,100899.00
2023-06-17T11:28:33.995Z,100899.44
2023-06-17T11:31:03.862Z,100887.22
2023-06-17T11:33:32.117Z,100883.56
2023-06-17T11:35:59.650Z,100886.00
2023-06-17T11:38:28.301Z,100890.63
2023-06-17T11:40:56.966Z,100890.31
2023-06-17T11:43:27.321Z,100891.78
2023-06-17T11:45:58.698Z,100883.50
2023-06-17T11:48:31.381Z,100896.88
2023-06-17T11:50:58.967Z,100906.47
2023-06-17T11:53:30.683Z,100921.38
2023-06-17T11:56:03.606Z,100914.47
2023-06-17T11:58:31.291Z,100913.28
2023-06-17T12:01:02.456Z,100908.94
2023-06-17T12:03:31.290Z,100907.56
2023-06-17T12:05:59.040Z,100911.50
2023-06-17T12:08:32.363Z,100930.19
2023-06-17T12:11:00.016Z,100927.44
2023-06-17T12:13:38.608Z,100924.00
2023-06-17T12:16:10.558Z,100920.59
2023-06-17T12:18:39.377Z,100916.72
2023-06-17T12:21:11.932Z,100917.84
2023-06-17T12:23:39.416Z,100913.91
2023-06-17T12:26:07.005Z,100904.22
2023-06-17T12:28:34.500Z,100905.72
2023-06-17T12:31:03.233Z,100907.66
2023-06-17T12:33:31.010Z,100907.50
2023-06-17T12:36:00.634Z,100917.19
2023-06-17T12:38:30.486Z,100924.97
2023-06-17T12:40:58.257Z,100920.72
2023-06-17T12:43:25.728Z,100910.84
2023-06-17T12:45:53.217Z,100905.19
2023-06-17T12:48:20.677Z,100912.16
2023-06-17T12:50:48.289Z,100912.56
2023-06-17T12:53:17.137Z,100915.06
2023-06-17T12:55:44.717Z,100913.19
2023-06-17T12:58:13.010Z,100907.50
2023-06-17T13:00:41.603Z,100900.66
2023-06-17T13:03:09.558Z,100892.81
2023-06-17T13:05:37.038Z,100890.28
2023-06-17T13:08:04.677Z,100887.28
2023-06-17T13:10:34.293Z,100878.59
2023-06-17T13:13:01.818Z,100874.59
2023-06-17T13:15:30.766Z,100878.53
2023-06-17T13:17:58.429Z,100890.13
2023-06-17T13:20:26.751Z,100884.75
2023-06-17T13:22:54.251Z,100888.16
2023-06-17T13:25:21.683Z,100870.59
2023-06-17T13:27:50.486Z,100870.81
2023-06-17T13:30:18.386Z,100863.84
2023-06-17T13:32:46.091Z,100865.47
2023-06-17T13:35:13.597Z,100862.50
2023-06-17T13:37:41.006Z,100865.06
2023-06-17T13:40:09.588Z,100862.25
2023-06-17T13:42:37.025Z,100856.09
2023-06-17T13:45:07.078Z,100867.81
2023-06-17T13:47:34.643Z,100864.88
2023-06-17T13:50:02.623Z,100867.06
2023-06-17T13:52:30.121Z,100874.81
2023-06-17T13:54:57.604Z,100871.38
2023-06-17T13:57:25.060Z,100870.16
2023-06-17T13:59:52.506Z,100862.41
2023-06-17T14:02:21.366Z,100860.84
2023-06-17T14:04:49.490Z,100854.63
2023-06-17T14:07:16.934Z,100853.81
2023-06-17T14:09:44.509Z,100856.44
2023-06-17T14:12:12.124Z,100860.09
2023-06-17T14:14:39.731Z,100856.81
2023-06-17T14:17:07.611Z,100855.13
2023-06-17T14:19:36.623Z,100858.00
2023-06-17T14:22:07.007Z,100849.88
2023-06-17T14:24:39.745Z,100846.88
2023-06-17T14:27:40.847Z,100842.84
2023-06-17T14:30:11.171Z,100852.22
2023-06-17T14:32:39.033Z,100833.34
2023-06-17T14:35:09.879Z,100840.13
2023-06-17T14:37:37.641Z,100842.94
2023-06-17T14:40:05.817Z,100837.69
2023-06-17T14:42:34.000Z,100843.00
2023-06-17T14:45:01.729Z,100852.59
2023-06-17T14:47:29.442Z,100847.03
2023-06-17T14:49:56.993Z,100845.22
2023-06-17T14:52:27.121Z,100845.03
2023-06-17T14:54:54.862Z,100834.41
2023-06-17T14:57:22.817Z,100833.38
2023-06-17T14:59:50.591Z,100827.53
2023-06-17T15:02:36.595Z,100824.91
2023-06-17T15:05:04.143Z,100840.03
2023-06-17T15:07:32.913Z,100838.31
2023-06-17T15:10:00.327Z,100836.91
2023-06-17T15:12:27.774Z,100831.91
2023-06-17T15:14:55.681Z,100841.00
2023-06-17T15:17:23.219Z,100841.31
2023-06-17T15:19:50.669Z,100850.94
2023-06-17T15:22:18.123Z,100854.25
2023-06-17T15:24:46.879Z,100845.47
2023-06-17T15:27:14.366Z,100848.06
2023-06-17T15:29:41.816Z,100856.44
2023-06-17T15:32:09.705Z,100839.41
2023-06-17T15:34:37.136Z,100847.97
2023-06-17T15:37:05.243Z,100843.94
2023-06-17T15:39:33.491Z,100843.56
2023-06-17T15:42:02.291Z,100838.19
2023-06-17T15:44:29.719Z,100845.44
2023-06-17T15:46:57.175Z,100844.63
2023-06-17T15:49:24.686Z,100850.16
2023-06-17T15:51:52.156Z,100847.09
2023-06-17T15:54:20.267Z,100851.63
2023-06-17T15:56:47.887Z,100850.78
2023-06-17T15:59:16.782Z,100852.84
2023-06-17T16:01:44.519Z,100850.44
2023-06-17T16:04:32.316Z,100851.75
2023-06-17T16:07:00.176Z,100843.91
2023-06-17T16:09:29.137Z,100844.81
2023-06-17T16:11:56.564Z,100847.56
2023-06-17T16:14:25.370Z,100856.03
2023-06-17T16:16:52.961Z,100848.63
2023-06-17T16:19:22.560Z,100843.16
2023-06-17T16:21:50.492Z,100846.06
2023-06-17T16:24:18.012Z,100849.88
2023-06-17T16:26:45.499Z,100850.84
2023-06-17T16:29:13.386Z,100849.88
2023-06-17T16:31:42.225Z,100855.25
2023-06-17T16:34:09.699Z,100849.16
2023-06-17T16:36:37.160Z,100854.38
2023-06-17T16:39:04.878Z,100856.25
2023-06-17T16:41:32.345Z,100850.13
2023-06-17T16:43:59.755Z,100857.41
2023-06-17T16:46:27.241Z,100856.16
2023-06-17T16:48:56.088Z,100858.25
2023-06-17T16:51:23.547Z,100868.66
2023-06-17T16:53:51.019Z,100865.00
2023-06-17T16:56:18.609Z,100862.97
2023-06-17T16:58:46.031Z,100865.09
2023-06-17T17:01:13.505Z,100867.03
2023-06-17T17:03:41.050Z,100866.78
2023-06-17T17:06:10.023Z,100860.94
2023-06-17T17:08:37.470Z,100857.03
2023-06-17T17:11:05.172Z,100857.44
2023-06-17T17:13:47.118Z,100858.91
2023-06-17T17:16:15.834Z,100858.78
2023-06-17T17:18:43.305Z,100853.78
2023-06-17T17:21:12.105Z,100855.25
2023-06-17T17:23:42.130Z,100854.94
2023-06-17T17:26:12.970Z,100855.47
2023-06-17T17:28:40.751Z,100859.00
2023-06-17T17:31:08.239Z,100856.78
2023-06-17T17:33:35.841Z,100857.34
2023-06-17T17:36:03.444Z,100850.03
2023-06-17T17:38:32.427Z,100851.94
2023-06-17T17:40:59.881Z,100860.94
2023-06-17T17:43:30.546Z,100852.16
2023-06-17T17:45:58.547Z,100858.31
2023-06-17T17:48:26.188Z,100854.72
2023-06-17T17:50:53.622Z,100848.06
2023-06-17T17:53:21.405Z,100851.25
2023-06-17T17:55:50.402Z,100860.34
2023-06-17T17:58:18.431Z,100853.34
2023-06-17T18:00:46.501Z,100858.09
2023-06-17T18:03:14.442Z,100855.00
2023-06-17T18:05:41.948Z,100863.72
2023-06-17T18:08:09.510Z,100866.31
2023-06-17T18:10:36.970Z,100864.56
2023-06-17T18:13:05.835Z,100873.72
2023-06-17T18:15:33.276Z,100867.22
2023-06-17T18:18:01.232Z,100867.78
2023-06-17T18:20:28.744Z,100865.72
2023-06-17T18:22:56.518Z,100864.31
2023-06-17T18:25:23.958Z,100860.25
2023-06-17T18:27:51.421Z,100861.75
2023-06-17T18:30:20.544Z,100857.31
2023-06-17T18:32:48.264Z,100864.97
2023-06-17T18:35:15.957Z,100863.09
2023-06-17T18:37:43.595Z,100867.63
2023-06-17T18:40:12.171Z,100872.88
2023-06-17T18:42:39.650Z,100869.84
2023-06-17T18:45:09.775Z,100877.25
2023-06-17T18:47:38.914Z,100877.09
2023-06-17T18:50:07.830Z,100876.47
2023-06-17T18:52:35.334Z,100875.06
2023-06-17T18:55:02.780Z,100873.91
2023-06-17T18:57:30.635Z,100876.25
2023-06-17T18:59:58.129Z,100875.94
2023-06-17T19:02:27.214Z,100868.81
2023-06-17T19:04:56.861Z,100860.56
2023-06-17T19:07:24.352Z,100869.06
2023-06-17T19:09:51.951Z,100873.47
2023-06-17T19:12:19.708Z,100868.44
2023-06-17T19:14:47.231Z,100871.22
2023-06-17T19:17:14.726Z,100871.66
2023-06-17T19:19:42.263Z,100877.72
2023-06-17T19:22:11.035Z,100874.19
2023-06-17T19:24:38.652Z,100869.03
2023-06-17T19:27:06.616Z,100876.47
2023-06-17T19:29:34.055Z,100869.16
2023-06-17T19:32:01.509Z,100878.66
2023-06-17T19:34:28.918Z,100877.00
2023-06-17T19:36:56.431Z,100870.13
2023-06-17T19:39:25.187Z,100875.00
2023-06-17T19:41:52.640Z,100880.91
2023-06-17T19:44:20.094Z,100881.28
2023-06-17T19:46:47.587Z,100880.22
2023-06-17T19:49:15.098Z,100887.91
2023-06-17T19:51:42.513Z,100891.22
2023-06-17T19:54:10.042Z,100897.66
2023-06-17T19:56:38.810Z,100895.34
2023-06-17T19:59:06.322Z,100893.31
2023-06-17T20:01:33.819Z,100891.34
2023-06-17T20:04:01.291Z,100899.56
2023-06-17T20:06:28.820Z,100895.81
2023-06-17T20:08:56.265Z,100894.69
2023-06-17T20:11:25.658Z,100888.78
2023-06-17T20:13:54.518Z,100896.94
2023-06-17T20:16:22.293Z,100893.97
2023-06-17T20:18:49.801Z,100896.47
2023-06-17T20:21:17.746Z,100897.94
2023-06-17T20:23:45.231Z,100905.78
2023-06-17T20:26:12.722Z,100903.41
2023-06-17T20:28:40.228Z,100905.31
2023-06-17T20:31:09.865Z,100899.63
2023-06-17T20:33:38.828Z,100909.16
2023-06-17T20:36:06.797Z,100911.56
2023-06-17T20:38:34.266Z,100921.53
2023-06-17T20:41:02.499Z,100920.97
2023-06-17T20:43:30.038Z,100926.22
2023-06-17T20:45:57.939Z,100931.31
2023-06-17T20:48:30.069Z,100933.13
2023-06-17T20:50:57.533Z,100934.41
2023-06-17T20:53:25.003Z,100930.28
2023-06-17T20:55:52.471Z,100929.66
2023-06-17T20:58:19.906Z,100937.59
2023-06-17T21:00:47.558Z,100936.75
2023-06-17T21:03:15.495Z,100933.41
2023-06-17T21:05:44.405Z,100938.44
2023-06-17T21:08:11.854Z,100930.53
2023-06-17T21:10:39.413Z,100935.53
2023-06-17T21:13:07.167Z,100933.72
2023-06-17T21:15:34.625Z,100933.28
2023-06-17T21:18:02.198Z,100938.22
2023-06-17T21:20:29.887Z,100933.34
2023-06-17T21:23:00.774Z,100938.81
2023-06-17T21:25:28.421Z,100933.66
2023-06-17T21:27:56.487Z,100934.09
2023-06-17T21:30:24.575Z,100943.34
2023-06-17T21:32:52.265Z,100938.50
2023-06-17T21:35:19.746Z,100933.50
2023-06-17T21:37:47.355Z,100936.50
2023-06-17T21:40:16.446Z,100936.41
2023-06-17T21:42:43.875Z,100938.41
2023-06-17T21:45:11.722Z,100938.38
2023-06-17T21:47:39.186Z,100942.56
2023-06-17T21:50:07.933Z,100938.59
2023-06-17T21:52:35.411Z,100937.88
2023-06-17T21:55:03.989Z,100941.56
2023-06-17T21:57:32.962Z,100934.75
2023-06-17T22:00:00.538Z,100935.00
2023-06-17T22:02:28.328Z,100929.78
2023-06-17T22:04:55.976Z,100931.50
2023-06-17T22:07:23.423Z,100939.13
2023-06-17T22:09:51.010Z,100937.38
2023-06-17T22:12:18.575Z,100939.13
2023-06-17T22:14:47.363Z,100933.03
2023-06-17T22:17:14.810Z,100941.06
2023-06-17T22:19:42.313Z,100931.06
2023-06-17T22:22:09.770Z,100930.28
2023-06-17T22:24:38.672Z,100932.97
2023-06-17T22:27:07.575Z,100937.31
2023-06-17T22:29:34.980Z,100935.59
2023-06-17T22:32:03.955Z,100940.09
2023-06-17T22:34:31.378Z,100939.06
2023-06-17T22:36:58.857Z,100942.44
2023-06-17T22:39:26.268Z,100937.63
2023-06-17T22:41:53.955Z,100941.09
2023-06-17T22:44:21.758Z,100940.50
2023-06-17T22:46:49.364Z,100946.81
2023-06-17T22:49:18.211Z,100935.63
2023-06-17T22:51:45.685Z,100941.91
2023-06-17T22:54:13.702Z,100946.28
2023-06-17T22:56:41.974Z,100947.81
2023-06-17T22:59:09.442Z,100943.28
2023-06-17T23:01:36.908Z,100944.13
2023-06-17T23:04:04.456Z,100944.88
2023-06-17T23:06:33.265Z,100936.22
2023-06-17T23:09:00.693Z,100932.25
2023-06-17T23:11:28.129Z,100925.59
2023-06-17T23:13:55.830Z,100922.19
2023-06-17T23:16:23.297Z,100924.22
2023-06-17T23:18:50.745Z,100921.72
2023-06-17T23:21:19.773Z,100928.78
2023-06-17T23:23:49.706Z,100911.22
2023-06-17T23:26:17.643Z,100914.78
2023-06-17T23:28:45.518Z,100922.63
2023-06-17T23:31:14.981Z,100925.63
2023-06-17T23:33:42.636Z,100927.09
2023-06-17T23:36:10.393Z,100925.38
2023-06-17T23:38:40.668Z,100918.03
2023-06-17T23:41:09.559Z,100917.31
2023-06-17T23:43:37.018Z,100909.28
2023-06-17T23:46:04.735Z,100915.25
2023-06-17T23:48:33.059Z,100914.41
2023-06-17T23:51:00.651Z,100914.31
2023-06-17T23:53:28.140Z,100907.66
2023-06-17T23:55:56.006Z,100907.91
2023-06-17T23:58:26.129Z,100917.41
